sensor_id;sensor_type;location;lat;lon;timestamp;P1;durP1;ratioP1;P2;durP2;ratioP2
12302;SDS011;6214;48.012;7.862;2022-08-21T00:00:11;5.80;;;1.67;;
12302;SDS011;6214;48.012;7.862;2022-08-21T00:02:54;5.68;;;1.63;;
12302;SDS011;6214;48.012;7.862;2022-08-21T00:05:23;5.10;;;1.60;;
12302;SDS011;6214;48.012;7.862;2022-08-21T00:07:51;4.53;;;1.75;;
12302;SDS011;6214;48.012;7.862;2022-08-21T00:10:18;5.10;;;1.60;;
12302;SDS011;6214;48.012;7.862;2022-08-21T00:12:46;5.93;;;1.80;;
12302;SDS011;6214;48.012;7.862;2022-08-21T00:15:15;5.63;;;1.70;;
12302;SDS011;6214;48.012;7.862;2022-08-21T00:17:45;4.30;;;1.50;;
12302;SDS011;6214;48.012;7.862;2022-08-21T00:20:13;5.93;;;1.60;;
12302;SDS011;6214;48.012;7.862;2022-08-21T00:22:41;5.40;;;1.60;;
12302;SDS011;6214;48.012;7.862;2022-08-21T00:25:09;5.00;;;1.40;;
12302;SDS011;6214;48.012;7.862;2022-08-21T00:27:37;4.40;;;1.40;;
12302;SDS011;6214;48.012;7.862;2022-08-21T00:30:05;4.97;;;1.40;;
12302;SDS011;6214;48.012;7.862;2022-08-21T00:32:33;4.70;;;1.40;;
12302;SDS011;6214;48.012;7.862;2022-08-21T00:35:06;5.90;;;1.80;;
12302;SDS011;6214;48.012;7.862;2022-08-21T00:37:35;4.43;;;1.65;;
12302;SDS011;6214;48.012;7.862;2022-08-21T00:40:02;6.05;;;1.70;;
12302;SDS011;6214;48.012;7.862;2022-08-21T00:42:30;5.10;;;1.35;;
12302;SDS011;6214;48.012;7.862;2022-08-21T00:44:57;4.55;;;1.50;;
12302;SDS011;6214;48.012;7.862;2022-08-21T00:47:24;5.47;;;1.55;;
12302;SDS011;6214;48.012;7.862;2022-08-21T00:49:51;4.50;;;1.50;;
12302;SDS011;6214;48.012;7.862;2022-08-21T00:52:19;5.55;;;1.55;;
12302;SDS011;6214;48.012;7.862;2022-08-21T00:54:50;5.70;;;1.60;;
12302;SDS011;6214;48.012;7.862;2022-08-21T00:57:28;4.60;;;1.40;;
12302;SDS011;6214;48.012;7.862;2022-08-21T00:59:58;5.23;;;1.63;;
12302;SDS011;6214;48.012;7.862;2022-08-21T01:02:27;6.00;;;1.70;;
12302;SDS011;6214;48.012;7.862;2022-08-21T01:04:56;5.18;;;1.48;;
12302;SDS011;6214;48.012;7.862;2022-08-21T01:07:24;5.80;;;1.60;;
12302;SDS011;6214;48.012;7.862;2022-08-21T01:09:53;4.40;;;1.70;;
12302;SDS011;6214;48.012;7.862;2022-08-21T01:12:20;4.50;;;1.40;;
12302;SDS011;6214;48.012;7.862;2022-08-21T01:14:47;6.72;;;1.58;;
12302;SDS011;6214;48.012;7.862;2022-08-21T01:17:14;5.10;;;1.67;;
12302;SDS011;6214;48.012;7.862;2022-08-21T01:19:43;6.93;;;2.10;;
12302;SDS011;6214;48.012;7.862;2022-08-21T01:22:10;6.40;;;1.58;;
12302;SDS011;6214;48.012;7.862;2022-08-21T01:24:37;4.82;;;1.40;;
12302;SDS011;6214;48.012;7.862;2022-08-21T01:27:04;5.20;;;1.63;;
12302;SDS011;6214;48.012;7.862;2022-08-21T01:32:11;4.78;;;1.70;;
12302;SDS011;6214;48.012;7.862;2022-08-21T01:34:41;4.45;;;1.55;;
12302;SDS011;6214;48.012;7.862;2022-08-21T01:37:09;4.20;;;1.50;;
12302;SDS011;6214;48.012;7.862;2022-08-21T01:39:37;4.57;;;1.60;;
12302;SDS011;6214;48.012;7.862;2022-08-21T01:42:04;5.17;;;1.63;;
12302;SDS011;6214;48.012;7.862;2022-08-21T01:44:33;4.72;;;1.75;;
12302;SDS011;6214;48.012;7.862;2022-08-21T01:47:01;5.18;;;1.83;;
12302;SDS011;6214;48.012;7.862;2022-08-21T01:49:30;4.90;;;1.80;;
12302;SDS011;6214;48.012;7.862;2022-08-21T01:51:57;5.70;;;1.60;;
12302;SDS011;6214;48.012;7.862;2022-08-21T01:54:25;5.10;;;1.73;;
12302;SDS011;6214;48.012;7.862;2022-08-21T01:56:53;4.28;;;1.73;;
12302;SDS011;6214;48.012;7.862;2022-08-21T01:59:21;5.20;;;1.70;;
12302;SDS011;6214;48.012;7.862;2022-08-21T02:01:49;4.75;;;1.70;;
12302;SDS011;6214;48.012;7.862;2022-08-21T02:04:16;5.05;;;1.70;;
12302;SDS011;6214;48.012;7.862;2022-08-21T02:06:43;5.05;;;1.70;;
12302;SDS011;6214;48.012;7.862;2022-08-21T02:09:11;5.00;;;1.70;;
12302;SDS011;6214;48.012;7.862;2022-08-21T02:11:40;5.18;;;1.80;;
12302;SDS011;6214;48.012;7.862;2022-08-21T02:14:08;4.93;;;1.80;;
12302;SDS011;6214;48.012;7.862;2022-08-21T02:16:38;5.20;;;1.87;;
12302;SDS011;6214;48.012;7.862;2022-08-21T02:19:05;5.75;;;2.00;;
12302;SDS011;6214;48.012;7.862;2022-08-21T02:21:32;6.45;;;1.70;;
12302;SDS011;6214;48.012;7.862;2022-08-21T02:23:59;4.72;;;1.70;;
12302;SDS011;6214;48.012;7.862;2022-08-21T02:26:26;4.53;;;1.70;;
12302;SDS011;6214;48.012;7.862;2022-08-21T02:28:53;5.20;;;1.70;;
12302;SDS011;6214;48.012;7.862;2022-08-21T02:31:20;5.72;;;1.83;;
12302;SDS011;6214;48.012;7.862;2022-08-21T02:33:47;4.50;;;1.70;;
12302;SDS011;6214;48.012;7.862;2022-08-21T02:36:14;4.90;;;1.55;;
12302;SDS011;6214;48.012;7.862;2022-08-21T02:38:41;5.68;;;1.90;;
12302;SDS011;6214;48.012;7.862;2022-08-21T02:41:11;5.13;;;1.60;;
12302;SDS011;6214;48.012;7.862;2022-08-21T02:43:42;4.47;;;1.63;;
12302;SDS011;6214;48.012;7.862;2022-08-21T02:46:10;5.20;;;1.75;;
12302;SDS011;6214;48.012;7.862;2022-08-21T02:48:39;4.20;;;1.50;;
12302;SDS011;6214;48.012;7.862;2022-08-21T02:51:07;4.88;;;1.52;;
12302;SDS011;6214;48.012;7.862;2022-08-21T02:53:39;4.72;;;1.70;;
12302;SDS011;6214;48.012;7.862;2022-08-21T02:56:08;4.90;;;1.73;;
12302;SDS011;6214;48.012;7.862;2022-08-21T02:58:38;4.60;;;1.50;;
12302;SDS011;6214;48.012;7.862;2022-08-21T03:01:08;5.20;;;1.65;;
12302;SDS011;6214;48.012;7.862;2022-08-21T03:03:36;4.88;;;1.80;;
12302;SDS011;6214;48.012;7.862;2022-08-21T03:06:05;4.90;;;1.70;;
12302;SDS011;6214;48.012;7.862;2022-08-21T03:08:35;4.50;;;1.70;;
12302;SDS011;6214;48.012;7.862;2022-08-21T03:11:04;6.07;;;1.95;;
12302;SDS011;6214;48.012;7.862;2022-08-21T03:13:33;4.50;;;1.70;;
12302;SDS011;6214;48.012;7.862;2022-08-21T03:16:00;4.82;;;1.40;;
12302;SDS011;6214;48.012;7.862;2022-08-21T03:18:30;4.55;;;1.65;;
12302;SDS011;6214;48.012;7.862;2022-08-21T03:20:57;4.50;;;1.30;;
12302;SDS011;6214;48.012;7.862;2022-08-21T03:23:24;4.95;;;1.67;;
12302;SDS011;6214;48.012;7.862;2022-08-21T03:25:58;5.68;;;1.80;;
12302;SDS011;6214;48.012;7.862;2022-08-21T03:28:25;5.10;;;1.80;;
12302;SDS011;6214;48.012;7.862;2022-08-21T03:30:52;6.70;;;1.80;;
12302;SDS011;6214;48.012;7.862;2022-08-21T03:33:20;5.23;;;1.70;;
12302;SDS011;6214;48.012;7.862;2022-08-21T03:35:52;5.10;;;2.13;;
12302;SDS011;6214;48.012;7.862;2022-08-21T03:38:24;6.82;;;2.00;;
12302;SDS011;6214;48.012;7.862;2022-08-21T03:40:52;4.80;;;1.75;;
12302;SDS011;6214;48.012;7.862;2022-08-21T03:43:19;4.80;;;1.70;;
12302;SDS011;6214;48.012;7.862;2022-08-21T03:45:46;4.90;;;1.70;;
12302;SDS011;6214;48.012;7.862;2022-08-21T03:48:13;4.22;;;1.60;;
12302;SDS011;6214;48.012;7.862;2022-08-21T03:50:41;4.30;;;1.73;;
12302;SDS011;6214;48.012;7.862;2022-08-21T03:53:10;4.90;;;1.73;;
12302;SDS011;6214;48.012;7.862;2022-08-21T03:55:43;4.70;;;1.88;;
12302;SDS011;6214;48.012;7.862;2022-08-21T03:58:15;5.40;;;1.90;;
12302;SDS011;6214;48.012;7.862;2022-08-21T04:00:44;5.18;;;2.10;;
12302;SDS011;6214;48.012;7.862;2022-08-21T04:03:13;5.20;;;1.70;;
12302;SDS011;6214;48.012;7.862;2022-08-21T04:05:41;5.70;;;1.70;;
12302;SDS011;6214;48.012;7.862;2022-08-21T04:08:08;6.97;;;2.00;;
12302;SDS011;6214;48.012;7.862;2022-08-21T04:10:36;6.23;;;2.00;;
12302;SDS011;6214;48.012;7.862;2022-08-21T04:13:04;5.40;;;1.90;;
12302;SDS011;6214;48.012;7.862;2022-08-21T04:15:33;5.40;;;1.70;;
12302;SDS011;6214;48.012;7.862;2022-08-21T04:18:00;6.00;;;1.80;;
12302;SDS011;6214;48.012;7.862;2022-08-21T04:20:27;4.03;;;1.70;;
12302;SDS011;6214;48.012;7.862;2022-08-21T04:22:54;5.57;;;2.00;;
12302;SDS011;6214;48.012;7.862;2022-08-21T04:25:23;4.30;;;1.80;;
12302;SDS011;6214;48.012;7.862;2022-08-21T04:27:51;5.75;;;1.98;;
12302;SDS011;6214;48.012;7.862;2022-08-21T04:30:19;5.72;;;2.17;;
12302;SDS011;6214;48.012;7.862;2022-08-21T04:32:53;5.18;;;1.70;;
12302;SDS011;6214;48.012;7.862;2022-08-21T04:35:22;5.50;;;2.20;;
12302;SDS011;6214;48.012;7.862;2022-08-21T04:37:51;4.30;;;1.73;;
12302;SDS011;6214;48.012;7.862;2022-08-21T04:40:19;4.40;;;1.75;;
12302;SDS011;6214;48.012;7.862;2022-08-21T04:42:49;4.70;;;1.90;;
12302;SDS011;6214;48.012;7.862;2022-08-21T04:45:19;4.40;;;2.00;;
12302;SDS011;6214;48.012;7.862;2022-08-21T04:47:52;6.22;;;1.90;;
12302;SDS011;6214;48.012;7.862;2022-08-21T04:50:21;5.47;;;2.10;;
12302;SDS011;6214;48.012;7.862;2022-08-21T04:52:54;5.05;;;1.70;;
12302;SDS011;6214;48.012;7.862;2022-08-21T04:55:21;5.18;;;1.63;;
12302;SDS011;6214;48.012;7.862;2022-08-21T04:57:49;5.00;;;2.30;;
12302;SDS011;6214;48.012;7.862;2022-08-21T05:00:20;5.23;;;1.80;;
12302;SDS011;6214;48.012;7.862;2022-08-21T05:02:48;7.60;;;1.63;;
12302;SDS011;6214;48.012;7.862;2022-08-21T05:05:16;5.10;;;2.00;;
12302;SDS011;6214;48.012;7.862;2022-08-21T05:07:43;6.15;;;2.05;;
12302;SDS011;6214;48.012;7.862;2022-08-21T05:10:11;6.05;;;2.10;;
12302;SDS011;6214;48.012;7.862;2022-08-21T05:12:43;5.95;;;2.10;;
12302;SDS011;6214;48.012;7.862;2022-08-21T05:15:11;5.40;;;2.00;;
12302;SDS011;6214;48.012;7.862;2022-08-21T05:17:39;4.57;;;1.80;;
12302;SDS011;6214;48.012;7.862;2022-08-21T05:20:10;5.60;;;2.25;;
12302;SDS011;6214;48.012;7.862;2022-08-21T05:22:38;5.95;;;2.20;;
12302;SDS011;6214;48.012;7.862;2022-08-21T05:25:06;5.13;;;1.90;;
12302;SDS011;6214;48.012;7.862;2022-08-21T05:27:36;6.72;;;2.20;;
12302;SDS011;6214;48.012;7.862;2022-08-21T05:30:07;6.00;;;2.20;;
12302;SDS011;6214;48.012;7.862;2022-08-21T05:32:35;7.05;;;2.20;;
12302;SDS011;6214;48.012;7.862;2022-08-21T05:35:04;4.70;;;1.90;;
12302;SDS011;6214;48.012;7.862;2022-08-21T05:37:32;5.73;;;2.00;;
12302;SDS011;6214;48.012;7.862;2022-08-21T05:40:00;4.93;;;2.03;;
12302;SDS011;6214;48.012;7.862;2022-08-21T05:42:47;5.70;;;2.20;;
12302;SDS011;6214;48.012;7.862;2022-08-21T05:45:22;4.65;;;2.00;;
12302;SDS011;6214;48.012;7.862;2022-08-21T05:48:10;5.70;;;2.20;;
12302;SDS011;6214;48.012;7.862;2022-08-21T05:50:39;5.90;;;1.77;;
12302;SDS011;6214;48.012;7.862;2022-08-21T05:53:07;6.13;;;2.40;;
12302;SDS011;6214;48.012;7.862;2022-08-21T05:55:36;5.60;;;1.98;;
12302;SDS011;6214;48.012;7.862;2022-08-21T05:58:11;6.30;;;2.20;;
12302;SDS011;6214;48.012;7.862;2022-08-21T06:00:39;5.13;;;2.40;;
12302;SDS011;6214;48.012;7.862;2022-08-21T06:03:10;4.65;;;1.90;;
12302;SDS011;6214;48.012;7.862;2022-08-21T06:05:39;5.70;;;2.03;;
12302;SDS011;6214;48.012;7.862;2022-08-21T06:08:05;5.78;;;2.20;;
12302;SDS011;6214;48.012;7.862;2022-08-21T06:10:32;6.20;;;2.17;;
12302;SDS011;6214;48.012;7.862;2022-08-21T06:13:00;4.63;;;1.83;;
12302;SDS011;6214;48.012;7.862;2022-08-21T06:15:27;7.13;;;2.20;;
12302;SDS011;6214;48.012;7.862;2022-08-21T06:17:54;5.10;;;2.00;;
12302;SDS011;6214;48.012;7.862;2022-08-21T06:20:21;5.00;;;1.90;;
12302;SDS011;6214;48.012;7.862;2022-08-21T06:22:48;4.95;;;1.90;;
12302;SDS011;6214;48.012;7.862;2022-08-21T06:25:15;5.57;;;1.90;;
12302;SDS011;6214;48.012;7.862;2022-08-21T06:27:42;5.57;;;1.90;;
12302;SDS011;6214;48.012;7.862;2022-08-21T06:30:10;5.13;;;2.00;;
12302;SDS011;6214;48.012;7.862;2022-08-21T06:32:37;5.60;;;1.92;;
12302;SDS011;6214;48.012;7.862;2022-08-21T06:35:04;5.30;;;1.92;;
12302;SDS011;6214;48.012;7.862;2022-08-21T06:37:33;6.75;;;2.00;;
12302;SDS011;6214;48.012;7.862;2022-08-21T06:40:00;5.18;;;2.00;;
12302;SDS011;6214;48.012;7.862;2022-08-21T06:42:29;5.65;;;2.15;;
12302;SDS011;6214;48.012;7.862;2022-08-21T06:44:56;4.90;;;2.10;;
12302;SDS011;6214;48.012;7.862;2022-08-21T06:47:23;5.20;;;1.90;;
12302;SDS011;6214;48.012;7.862;2022-08-21T06:49:51;5.00;;;1.87;;
12302;SDS011;6214;48.012;7.862;2022-08-21T06:52:18;5.28;;;1.90;;
12302;SDS011;6214;48.012;7.862;2022-08-21T06:54:45;4.97;;;1.90;;
12302;SDS011;6214;48.012;7.862;2022-08-21T06:57:12;5.40;;;2.03;;
12302;SDS011;6214;48.012;7.862;2022-08-21T06:59:39;5.30;;;1.97;;
12302;SDS011;6214;48.012;7.862;2022-08-21T07:02:06;6.70;;;1.98;;
12302;SDS011;6214;48.012;7.862;2022-08-21T07:04:33;5.10;;;1.80;;
12302;SDS011;6214;48.012;7.862;2022-08-21T07:07:00;5.40;;;1.90;;
12302;SDS011;6214;48.012;7.862;2022-08-21T07:09:27;5.20;;;2.00;;
12302;SDS011;6214;48.012;7.862;2022-08-21T07:11:55;5.60;;;2.00;;
12302;SDS011;6214;48.012;7.862;2022-08-21T07:14:22;5.40;;;1.77;;
12302;SDS011;6214;48.012;7.862;2022-08-21T07:16:49;5.10;;;1.90;;
12302;SDS011;6214;48.012;7.862;2022-08-21T07:19:17;4.88;;;1.80;;
12302;SDS011;6214;48.012;7.862;2022-08-21T07:21:45;4.70;;;2.00;;
12302;SDS011;6214;48.012;7.862;2022-08-21T07:24:12;5.60;;;1.90;;
12302;SDS011;6214;48.012;7.862;2022-08-21T07:26:40;6.50;;;1.90;;
12302;SDS011;6214;48.012;7.862;2022-08-21T07:29:07;5.68;;;2.08;;
12302;SDS011;6214;48.012;7.862;2022-08-21T07:31:34;5.05;;;1.90;;
12302;SDS011;6214;48.012;7.862;2022-08-21T07:34:01;5.03;;;1.80;;
12302;SDS011;6214;48.012;7.862;2022-08-21T07:36:28;6.22;;;2.40;;
12302;SDS011;6214;48.012;7.862;2022-08-21T07:38:58;6.00;;;2.60;;
12302;SDS011;6214;48.012;7.862;2022-08-21T07:41:27;6.40;;;2.90;;
12302;SDS011;6214;48.012;7.862;2022-08-21T07:43:55;5.20;;;1.90;;
12302;SDS011;6214;48.012;7.862;2022-08-21T07:46:23;4.40;;;1.70;;
12302;SDS011;6214;48.012;7.862;2022-08-21T07:48:52;6.18;;;2.00;;
12302;SDS011;6214;48.012;7.862;2022-08-21T07:51:20;5.63;;;2.20;;
12302;SDS011;6214;48.012;7.862;2022-08-21T07:53:52;5.20;;;1.98;;
12302;SDS011;6214;48.012;7.862;2022-08-21T07:56:20;5.53;;;1.80;;
12302;SDS011;6214;48.012;7.862;2022-08-21T07:58:47;6.28;;;1.60;;
12302;SDS011;6214;48.012;7.862;2022-08-21T08:01:15;5.13;;;1.60;;
12302;SDS011;6214;48.012;7.862;2022-08-21T08:03:42;6.00;;;2.00;;
12302;SDS011;6214;48.012;7.862;2022-08-21T08:06:09;4.70;;;1.70;;
12302;SDS011;6214;48.012;7.862;2022-08-21T08:08:39;6.00;;;1.80;;
12302;SDS011;6214;48.012;7.862;2022-08-21T08:11:07;4.68;;;1.65;;
12302;SDS011;6214;48.012;7.862;2022-08-21T08:13:47;4.90;;;1.50;;
12302;SDS011;6214;48.012;7.862;2022-08-21T08:16:15;4.53;;;1.63;;
12302;SDS011;6214;48.012;7.862;2022-08-21T08:18:44;4.80;;;1.80;;
12302;SDS011;6214;48.012;7.862;2022-08-21T08:21:11;5.40;;;1.80;;
12302;SDS011;6214;48.012;7.862;2022-08-21T08:23:39;5.70;;;1.75;;
12302;SDS011;6214;48.012;7.862;2022-08-21T08:26:06;5.28;;;2.00;;
12302;SDS011;6214;48.012;7.862;2022-08-21T08:28:33;4.13;;;1.60;;
12302;SDS011;6214;48.012;7.862;2022-08-21T08:31:00;4.30;;;1.67;;
12302;SDS011;6214;48.012;7.862;2022-08-21T08:33:27;5.15;;;1.85;;
12302;SDS011;6214;48.012;7.862;2022-08-21T08:35:55;4.32;;;1.70;;
12302;SDS011;6214;48.012;7.862;2022-08-21T08:38:22;5.10;;;1.60;;
12302;SDS011;6214;48.012;7.862;2022-08-21T08:43:59;5.72;;;2.05;;
12302;SDS011;6214;48.012;7.862;2022-08-21T08:46:31;5.45;;;1.88;;
12302;SDS011;6214;48.012;7.862;2022-08-21T08:52:24;4.72;;;1.80;;
12302;SDS011;6214;48.012;7.862;2022-08-21T08:57:30;5.15;;;1.67;;
12302;SDS011;6214;48.012;7.862;2022-08-21T08:59:59;5.23;;;1.90;;
12302;SDS011;6214;48.012;7.862;2022-08-21T09:02:30;5.50;;;2.00;;
12302;SDS011;6214;48.012;7.862;2022-08-21T09:04:59;5.40;;;2.08;;
12302;SDS011;6214;48.012;7.862;2022-08-21T09:10:21;5.22;;;2.10;;
12302;SDS011;6214;48.012;7.862;2022-08-21T09:16:01;4.90;;;1.83;;
12302;SDS011;6214;48.012;7.862;2022-08-21T09:19:04;5.17;;;2.00;;
12302;SDS011;6214;48.012;7.862;2022-08-21T09:27:17;5.97;;;2.00;;
12302;SDS011;6214;48.012;7.862;2022-08-21T09:29:46;5.18;;;1.95;;
12302;SDS011;6214;48.012;7.862;2022-08-21T09:32:18;4.97;;;2.00;;
12302;SDS011;6214;48.012;7.862;2022-08-21T09:37:31;5.50;;;2.20;;
12302;SDS011;6214;48.012;7.862;2022-08-21T09:40:01;5.85;;;2.40;;
12302;SDS011;6214;48.012;7.862;2022-08-21T09:42:31;5.70;;;2.20;;
12302;SDS011;6214;48.012;7.862;2022-08-21T09:45:32;5.80;;;2.33;;
12302;SDS011;6214;48.012;7.862;2022-08-21T09:47:51;6.63;;;2.50;;
12302;SDS011;6214;48.012;7.862;2022-08-21T09:50:23;6.60;;;2.17;;
12302;SDS011;6214;48.012;7.862;2022-08-21T09:52:56;6.20;;;2.30;;
12302;SDS011;6214;48.012;7.862;2022-08-21T09:55:39;6.50;;;2.80;;
12302;SDS011;6214;48.012;7.862;2022-08-21T09:58:38;5.47;;;2.30;;
12302;SDS011;6214;48.012;7.862;2022-08-21T10:01:14;5.47;;;2.28;;
12302;SDS011;6214;48.012;7.862;2022-08-21T10:03:48;5.00;;;2.10;;
12302;SDS011;6214;48.012;7.862;2022-08-21T10:06:26;5.47;;;2.10;;
12302;SDS011;6214;48.012;7.862;2022-08-21T10:09:03;6.97;;;2.60;;
12302;SDS011;6214;48.012;7.862;2022-08-21T10:11:30;8.20;;;2.30;;
12302;SDS011;6214;48.012;7.862;2022-08-21T10:14:08;5.70;;;2.17;;
12302;SDS011;6214;48.012;7.862;2022-08-21T10:16:47;6.10;;;2.40;;
12302;SDS011;6214;48.012;7.862;2022-08-21T10:19:34;7.20;;;2.30;;
12302;SDS011;6214;48.012;7.862;2022-08-21T10:26:16;4.78;;;1.92;;
12302;SDS011;6214;48.012;7.862;2022-08-21T10:28:44;6.03;;;2.10;;
12302;SDS011;6214;48.012;7.862;2022-08-21T10:31:27;6.20;;;2.30;;
12302;SDS011;6214;48.012;7.862;2022-08-21T10:39:37;6.07;;;1.98;;
12302;SDS011;6214;48.012;7.862;2022-08-21T10:42:29;5.40;;;1.97;;
12302;SDS011;6214;48.012;7.862;2022-08-21T10:47:36;5.67;;;1.90;;
12302;SDS011;6214;48.012;7.862;2022-08-21T10:56:02;4.05;;;1.70;;
12302;SDS011;6214;48.012;7.862;2022-08-21T10:58:47;7.10;;;2.10;;
12302;SDS011;6214;48.012;7.862;2022-08-21T11:04:07;5.60;;;1.60;;
12302;SDS011;6214;48.012;7.862;2022-08-21T11:06:35;6.60;;;1.90;;
12302;SDS011;6214;48.012;7.862;2022-08-21T11:09:12;5.80;;;1.60;;
12302;SDS011;6214;48.012;7.862;2022-08-21T11:11:49;5.88;;;1.70;;
12302;SDS011;6214;48.012;7.862;2022-08-21T11:17:18;6.00;;;1.50;;
12302;SDS011;6214;48.012;7.862;2022-08-21T11:23:08;4.20;;;1.50;;
12302;SDS011;6214;48.012;7.862;2022-08-21T11:25:51;4.30;;;1.40;;
12302;SDS011;6214;48.012;7.862;2022-08-21T11:28:23;4.72;;;1.50;;
12302;SDS011;6214;48.012;7.862;2022-08-21T11:31:29;4.80;;;1.60;;
12302;SDS011;6214;48.012;7.862;2022-08-21T11:34:15;4.00;;;1.30;;
12302;SDS011;6214;48.012;7.862;2022-08-21T11:36:55;6.63;;;1.83;;
12302;SDS011;6214;48.012;7.862;2022-08-21T11:43:02;4.70;;;1.60;;
12302;SDS011;6214;48.012;7.862;2022-08-21T11:45:53;5.07;;;1.70;;
12302;SDS011;6214;48.012;7.862;2022-08-21T11:57:22;4.57;;;1.30;;
12302;SDS011;6214;48.012;7.862;2022-08-21T12:00:03;4.90;;;1.40;;
12302;SDS011;6214;48.012;7.862;2022-08-21T12:02:52;4.60;;;1.50;;
12302;SDS011;6214;48.012;7.862;2022-08-21T12:05:33;5.97;;;1.60;;
12302;SDS011;6214;48.012;7.862;2022-08-21T12:08:11;4.53;;;1.60;;
12302;SDS011;6214;48.012;7.862;2022-08-21T12:10:41;4.30;;;1.40;;
12302;SDS011;6214;48.012;7.862;2022-08-21T12:13:25;5.05;;;1.60;;
12302;SDS011;6214;48.012;7.862;2022-08-21T12:18:35;4.10;;;1.50;;
12302;SDS011;6214;48.012;7.862;2022-08-21T12:21:24;4.70;;;1.50;;
12302;SDS011;6214;48.012;7.862;2022-08-21T12:26:54;4.50;;;1.30;;
12302;SDS011;6214;48.012;7.862;2022-08-21T12:29:25;4.70;;;1.48;;
12302;SDS011;6214;48.012;7.862;2022-08-21T12:32:54;5.38;;;1.60;;
12302;SDS011;6214;48.012;7.862;2022-08-21T12:34:57;4.50;;;1.17;;
12302;SDS011;6214;48.012;7.862;2022-08-21T12:37:58;4.68;;;1.60;;
12302;SDS011;6214;48.012;7.862;2022-08-21T12:43:38;4.90;;;1.60;;
12302;SDS011;6214;48.012;7.862;2022-08-21T12:46:19;4.78;;;1.70;;
12302;SDS011;6214;48.012;7.862;2022-08-21T12:48:57;5.28;;;1.80;;
12302;SDS011;6214;48.012;7.862;2022-08-21T12:51:32;5.80;;;1.80;;
12302;SDS011;6214;48.012;7.862;2022-08-21T12:54:21;5.07;;;1.70;;
12302;SDS011;6214;48.012;7.862;2022-08-21T12:56:57;5.50;;;1.55;;
12302;SDS011;6214;48.012;7.862;2022-08-21T12:59:26;5.50;;;1.60;;
12302;SDS011;6214;48.012;7.862;2022-08-21T13:01:53;5.20;;;1.80;;
12302;SDS011;6214;48.012;7.862;2022-08-21T13:04:22;4.32;;;1.70;;
12302;SDS011;6214;48.012;7.862;2022-08-21T13:07:05;4.70;;;1.70;;
12302;SDS011;6214;48.012;7.862;2022-08-21T13:09:43;5.32;;;1.80;;
12302;SDS011;6214;48.012;7.862;2022-08-21T13:12:14;4.50;;;1.60;;
12302;SDS011;6214;48.012;7.862;2022-08-21T13:14:44;5.55;;;1.95;;
12302;SDS011;6214;48.012;7.862;2022-08-21T13:17:17;4.25;;;1.55;;
12302;SDS011;6214;48.012;7.862;2022-08-21T13:19:58;4.40;;;1.60;;
12302;SDS011;6214;48.012;7.862;2022-08-21T13:22:27;4.43;;;1.80;;
12302;SDS011;6214;48.012;7.862;2022-08-21T13:25:00;5.10;;;1.80;;
12302;SDS011;6214;48.012;7.862;2022-08-21T13:27:32;4.60;;;1.40;;
12302;SDS011;6214;48.012;7.862;2022-08-21T13:30:09;3.93;;;1.50;;
12302;SDS011;6214;48.012;7.862;2022-08-21T13:32:44;4.78;;;1.60;;
12302;SDS011;6214;48.012;7.862;2022-08-21T13:35:21;4.50;;;1.55;;
12302;SDS011;6214;48.012;7.862;2022-08-21T13:37:52;6.20;;;1.80;;
12302;SDS011;6214;48.012;7.862;2022-08-21T13:40:25;5.38;;;1.70;;
12302;SDS011;6214;48.012;7.862;2022-08-21T13:42:55;4.70;;;1.88;;
12302;SDS011;6214;48.012;7.862;2022-08-21T13:45:25;4.33;;;1.67;;
12302;SDS011;6214;48.012;7.862;2022-08-21T13:47:59;4.13;;;1.40;;
12302;SDS011;6214;48.012;7.862;2022-08-21T13:50:32;5.20;;;1.83;;
12302;SDS011;6214;48.012;7.862;2022-08-21T13:53:04;4.78;;;1.63;;
12302;SDS011;6214;48.012;7.862;2022-08-21T13:55:40;6.10;;;1.90;;
12302;SDS011;6214;48.012;7.862;2022-08-21T13:58:10;5.03;;;1.60;;
12302;SDS011;6214;48.012;7.862;2022-08-21T14:00:45;5.18;;;1.80;;
12302;SDS011;6214;48.012;7.862;2022-08-21T14:06:01;5.40;;;1.73;;
12302;SDS011;6214;48.012;7.862;2022-08-21T14:08:37;5.13;;;1.60;;
12302;SDS011;6214;48.012;7.862;2022-08-21T14:11:10;4.20;;;1.50;;
12302;SDS011;6214;48.012;7.862;2022-08-21T14:13:40;4.38;;;1.50;;
12302;SDS011;6214;48.012;7.862;2022-08-21T14:16:12;5.00;;;1.70;;
12302;SDS011;6214;48.012;7.862;2022-08-21T14:21:24;5.50;;;1.60;;
12302;SDS011;6214;48.012;7.862;2022-08-21T14:24:42;4.32;;;1.70;;
12302;SDS011;6214;48.012;7.862;2022-08-21T14:26:51;4.70;;;1.60;;
12302;SDS011;6214;48.012;7.862;2022-08-21T14:29:22;5.90;;;1.60;;
12302;SDS011;6214;48.012;7.862;2022-08-21T14:31:58;4.90;;;1.60;;
12302;SDS011;6214;48.012;7.862;2022-08-21T14:34:49;5.05;;;1.70;;
12302;SDS011;6214;48.012;7.862;2022-08-21T14:37:16;4.72;;;1.70;;
12302;SDS011;6214;48.012;7.862;2022-08-21T14:39:43;5.78;;;1.70;;
12302;SDS011;6214;48.012;7.862;2022-08-21T14:42:11;4.72;;;1.65;;
12302;SDS011;6214;48.012;7.862;2022-08-21T14:44:39;5.00;;;1.80;;
12302;SDS011;6214;48.012;7.862;2022-08-21T14:47:06;4.80;;;1.63;;
12302;SDS011;6214;48.012;7.862;2022-08-21T14:49:34;5.20;;;1.80;;
12302;SDS011;6214;48.012;7.862;2022-08-21T14:52:03;5.07;;;1.80;;
12302;SDS011;6214;48.012;7.862;2022-08-21T14:54:30;4.30;;;1.65;;
12302;SDS011;6214;48.012;7.862;2022-08-21T14:56:59;5.00;;;2.00;;
12302;SDS011;6214;48.012;7.862;2022-08-21T14:59:29;6.13;;;2.10;;
12302;SDS011;6214;48.012;7.862;2022-08-21T15:01:59;6.60;;;1.80;;
12302;SDS011;6214;48.012;7.862;2022-08-21T15:04:26;5.10;;;1.50;;
12302;SDS011;6214;48.012;7.862;2022-08-21T15:06:53;4.50;;;1.50;;
12302;SDS011;6214;48.012;7.862;2022-08-21T15:09:20;4.93;;;1.58;;
12302;SDS011;6214;48.012;7.862;2022-08-21T15:11:48;4.60;;;1.60;;
12302;SDS011;6214;48.012;7.862;2022-08-21T15:14:17;4.20;;;1.50;;
12302;SDS011;6214;48.012;7.862;2022-08-21T15:16:47;5.28;;;1.80;;
12302;SDS011;6214;48.012;7.862;2022-08-21T15:19:15;4.38;;;1.50;;
12302;SDS011;6214;48.012;7.862;2022-08-21T15:21:42;4.70;;;1.90;;
12302;SDS011;6214;48.012;7.862;2022-08-21T15:24:09;5.30;;;1.70;;
12302;SDS011;6214;48.012;7.862;2022-08-21T15:26:36;4.13;;;1.50;;
12302;SDS011;6214;48.012;7.862;2022-08-21T15:29:04;4.38;;;1.77;;
12302;SDS011;6214;48.012;7.862;2022-08-21T15:31:33;4.30;;;1.80;;
12302;SDS011;6214;48.012;7.862;2022-08-21T15:34:01;4.97;;;1.70;;
12302;SDS011;6214;48.012;7.862;2022-08-21T15:36:28;4.82;;;1.48;;
12302;SDS011;6214;48.012;7.862;2022-08-21T15:38:55;4.85;;;1.75;;
12302;SDS011;6214;48.012;7.862;2022-08-21T15:41:22;8.00;;;1.80;;
12302;SDS011;6214;48.012;7.862;2022-08-21T15:43:50;4.90;;;1.73;;
12302;SDS011;6214;48.012;7.862;2022-08-21T15:46:19;6.45;;;2.00;;
12302;SDS011;6214;48.012;7.862;2022-08-21T15:48:47;5.22;;;1.67;;
12302;SDS011;6214;48.012;7.862;2022-08-21T15:51:15;4.70;;;1.60;;
12302;SDS011;6214;48.012;7.862;2022-08-21T15:53:43;5.05;;;1.52;;
12302;SDS011;6214;48.012;7.862;2022-08-21T15:56:23;4.50;;;1.55;;
12302;SDS011;6214;48.012;7.862;2022-08-21T15:58:52;4.60;;;1.65;;
12302;SDS011;6214;48.012;7.862;2022-08-21T16:01:24;4.40;;;1.70;;
12302;SDS011;6214;48.012;7.862;2022-08-21T16:03:52;4.00;;;1.50;;
12302;SDS011;6214;48.012;7.862;2022-08-21T16:06:20;4.85;;;1.60;;
12302;SDS011;6214;48.012;7.862;2022-08-21T16:09:07;4.88;;;1.50;;
12302;SDS011;6214;48.012;7.862;2022-08-21T16:11:34;5.40;;;1.52;;
12302;SDS011;6214;48.012;7.862;2022-08-21T16:14:01;4.30;;;1.50;;
12302;SDS011;6214;48.012;7.862;2022-08-21T16:16:28;6.03;;;1.53;;
12302;SDS011;6214;48.012;7.862;2022-08-21T16:18:59;5.78;;;1.75;;
12302;SDS011;6214;48.012;7.862;2022-08-21T16:21:26;4.90;;;1.80;;
12302;SDS011;6214;48.012;7.862;2022-08-21T16:23:53;4.93;;;1.50;;
12302;SDS011;6214;48.012;7.862;2022-08-21T16:26:21;4.55;;;1.50;;
12302;SDS011;6214;48.012;7.862;2022-08-21T16:28:48;4.50;;;1.50;;
12302;SDS011;6214;48.012;7.862;2022-08-21T16:31:21;4.82;;;1.67;;
12302;SDS011;6214;48.012;7.862;2022-08-21T16:33:50;5.47;;;2.20;;
12302;SDS011;6214;48.012;7.862;2022-08-21T16:36:23;5.10;;;1.85;;
12302;SDS011;6214;48.012;7.862;2022-08-21T16:38:54;4.30;;;1.60;;
12302;SDS011;6214;48.012;7.862;2022-08-21T16:41:22;4.60;;;1.50;;